sensor_id;sensor_type;location;lat;lon;timestamp;temperature;humidity
2565;DHT22;1292;48.020;7.822;2022-11-20T06:45:18;7.80;99.90
2565;DHT22;1292;48.020;7.822;2022-11-20T06:47:45;7.80;99.90
2565;DHT22;1292;48.020;7.822;2022-11-20T06:50:13;7.80;99.90
2565;DHT22;1292;48.020;7.822;2022-11-20T06:52:39;7.80;99.90
2565;DHT22;1292;48.020;7.822;2022-11-20T06:55:07;7.70;99.90
2565;DHT22;1292;48.020;7.822;2022-11-20T06:57:34;7.80;99.90
2565;DHT22;1292;48.020;7.822;2022-11-20T07:00:01;7.80;99.90
2565;DHT22;1292;48.020;7.822;2022-11-20T07:02:29;7.80;99.90
2565;DHT22;1292;48.020;7.822;2022-11-20T07:04:56;7.80;99.90
2565;DHT22;1292;48.020;7.822;2022-11-20T07:07:23;7.80;99.90
2565;DHT22;1292;48.020;7.822;2022-11-20T07:09:49;7.80;99.90
2565;DHT22;1292;48.020;7.822;2022-11-20T07:12:16;7.80;99.90
2565;DHT22;1292;48.020;7.822;2022-11-20T07:14:43;7.80;99.90
2565;DHT22;1292;48.020;7.822;2022-11-20T07:17:10;7.90;99.90
2565;DHT22;1292;48.020;7.822;2022-11-20T07:19:39;7.90;99.90
2565;DHT22;1292;48.020;7.822;2022-11-20T07:22:06;7.90;99.90
2565;DHT22;1292;48.020;7.822;2022-11-20T07:24:32;8.00;99.90
2565;DHT22;1292;48.020;7.822;2022-11-20T07:27:00;8.00;99.90
2565;DHT22;1292;48.020;7.822;2022-11-20T07:29:27;8.00;99.90
2565;DHT22;1292;48.020;7.822;2022-11-20T07:31:54;8.10;99.90
2565;DHT22;1292;48.020;7.822;2022-11-20T07:34:21;8.00;99.90
2565;DHT22;1292;48.020;7.822;2022-11-20T07:36:49;8.00;99.90
2565;DHT22;1292;48.020;7.822;2022-11-20T07:39:16;8.10;99.90
2565;DHT22;1292;48.020;7.822;2022-11-20T07:41:42;8.00;99.90
2565;DHT22;1292;48.020;7.822;2022-11-20T07:44:09;8.00;99.90
2565;DHT22;1292;48.020;7.822;2022-11-20T07:46:36;8.00;99.90
2565;DHT22;1292;48.020;7.822;2022-11-20T07:49:03;7.90;99.90
2565;DHT22;1292;48.020;7.822;2022-11-20T07:51:30;7.90;99.90
2565;DHT22;1292;48.020;7.822;2022-11-20T07:53:58;7.90;99.90
2565;DHT22;1292;48.020;7.822;2022-11-20T07:56:25;7.90;99.90
2565;DHT22;1292;48.020;7.822;2022-11-20T07:58:52;7.90;99.90
2565;DHT22;1292;48.020;7.822;2022-11-20T08:01:19;7.90;99.90
2565;DHT22;1292;48.020;7.822;2022-11-20T08:03:46;7.90;99.90
2565;DHT22;1292;48.020;7.822;2022-11-20T08:06:12;7.90;99.90
2565;DHT22;1292;48.020;7.822;2022-11-20T08:08:40;7.90;99.90
2565;DHT22;1292;48.020;7.822;2022-11-20T08:11:08;7.90;99.90
2565;DHT22;1292;48.020;7.822;2022-11-20T08:13:52;7.90;99.90
2565;DHT22;1292;48.020;7.822;2022-11-20T08:16:36;8.00;99.90
2565;DHT22;1292;48.020;7.822;2022-11-20T08:19:03;7.90;99.90
2565;DHT22;1292;48.020;7.822;2022-11-20T08:21:30;8.00;99.90
2565;DHT22;1292;48.020;7.822;2022-11-20T08:23:57;8.00;99.90
2565;DHT22;1292;48.020;7.822;2022-11-20T08:26:26;8.00;99.90
2565;DHT22;1292;48.020;7.822;2022-11-20T08:28:53;8.10;99.90
2565;DHT22;1292;48.020;7.822;2022-11-20T08:31:21;8.20;99.90
2565;DHT22;1292;48.020;7.822;2022-11-20T08:33:48;8.10;99.90
2565;DHT22;1292;48.020;7.822;2022-11-20T08:36:15;8.10;99.90
2565;DHT22;1292;48.020;7.822;2022-11-20T08:38:46;8.00;99.90
2565;DHT22;1292;48.020;7.822;2022-11-20T08:41:13;8.10;99.90
2565;DHT22;1292;48.020;7.822;2022-11-20T08:43:55;8.20;99.90
2565;DHT22;1292;48.020;7.822;2022-11-20T08:46:24;8.10;99.90
2565;DHT22;1292;48.020;7.822;2022-11-20T08:48:52;8.10;99.90
2565;DHT22;1292;48.020;7.822;2022-11-20T08:51:19;8.10;99.90
2565;DHT22;1292;48.020;7.822;2022-11-20T08:53:46;8.20;99.90
2565;DHT22;1292;48.020;7.822;2022-11-20T08:56:14;8.20;99.90
2565;DHT22;1292;48.020;7.822;2022-11-20T08:58:41;8.20;99.90
2565;DHT22;1292;48.020;7.822;2022-11-20T09:01:09;8.20;99.90
2565;DHT22;1292;48.020;7.822;2022-11-20T09:03:36;8.30;99.90
2565;DHT22;1292;48.020;7.822;2022-11-20T09:06:05;8.30;99.90
2565;DHT22;1292;48.020;7.822;2022-11-20T09:08:33;8.30;99.90
2565;DHT22;1292;48.020;7.822;2022-11-20T09:11:01;8.30;99.90
2565;DHT22;1292;48.020;7.822;2022-11-20T09:13:29;8.20;99.90
2565;DHT22;1292;48.020;7.822;2022-11-20T09:15:57;8.30;99.90
2565;DHT22;1292;48.020;7.822;2022-11-20T09:18:26;8.30;99.90
2565;DHT22;1292;48.020;7.822;2022-11-20T09:20:56;8.30;99.90
2565;DHT22;1292;48.020;7.822;2022-11-20T09:23:23;8.40;99.90
2565;DHT22;1292;48.020;7.822;2022-11-20T09:25:50;8.40;99.90
2565;DHT22;1292;48.020;7.822;2022-11-20T09:28:18;8.40;99.90
2565;DHT22;1292;48.020;7.822;2022-11-20T09:30:45;8.40;99.90
2565;DHT22;1292;48.020;7.822;2022-11-20T09:33:11;8.50;99.90
2565;DHT22;1292;48.020;7.822;2022-11-20T09:35:40;8.50;99.90
2565;DHT22;1292;48.020;7.822;2022-11-20T09:38:07;8.50;99.90
2565;DHT22;1292;48.020;7.822;2022-11-20T09:40:35;8.40;99.90
2565;DHT22;1292;48.020;7.822;2022-11-20T09:43:10;8.40;99.90
2565;DHT22;1292;48.020;7.822;2022-11-20T09:45:48;8.50;99.90
2565;DHT22;1292;48.020;7.822;2022-11-20T09:49:00;8.50;99.90
2565;DHT22;1292;48.020;7.822;2022-11-20T09:51:37;8.50;99.90
2565;DHT22;1292;48.020;7.822;2022-11-20T09:54:16;8.60;99.90
2565;DHT22;1292;48.020;7.822;2022-11-20T09:56:46;8.60;99.90
2565;DHT22;1292;48.020;7.822;2022-11-20T09:59:29;8.70;99.90
2565;DHT22;1292;48.020;7.822;2022-11-20T10:01:59;8.80;99.90
2565;DHT22;1292;48.020;7.822;2022-11-20T10:04:31;8.80;99.90
2565;DHT22;1292;48.020;7.822;2022-11-20T10:07:04;8.90;99.90
2565;DHT22;1292;48.020;7.822;2022-11-20T10:09:37;8.90;99.90
2565;DHT22;1292;48.020;7.822;2022-11-20T10:12:12;8.90;99.90
2565;DHT22;1292;48.020;7.822;2022-11-20T10:14:54;8.90;99.90
2565;DHT22;1292;48.020;7.822;2022-11-20T10:20:19;9.00;99.90
2565;DHT22;1292;48.020;7.822;2022-11-20T10:23:00;9.00;99.90
2565;DHT22;1292;48.020;7.822;2022-11-20T10:25:37;8.80;99.90
2565;DHT22;1292;48.020;7.822;2022-11-20T10:28:29;8.70;99.90
2565;DHT22;1292;48.020;7.822;2022-11-20T10:31:00;8.80;99.90
2565;DHT22;1292;48.020;7.822;2022-11-20T10:33:32;8.80;99.90
2565;DHT22;1292;48.020;7.822;2022-11-20T10:36:08;8.70;99.90
2565;DHT22;1292;48.020;7.822;2022-11-20T10:38:42;8.70;99.90
2565;DHT22;1292;48.020;7.822;2022-11-20T10:41:15;8.80;99.90
2565;DHT22;1292;48.020;7.822;2022-11-20T10:43:57;8.80;99.90
2565;DHT22;1292;48.020;7.822;2022-11-20T10:46:26;8.90;99.90
2565;DHT22;1292;48.020;7.822;2022-11-20T10:48:56;8.90;99.90
2565;DHT22;1292;48.020;7.822;2022-11-20T10:51:33;9.00;99.90
2565;DHT22;1292;48.020;7.822;2022-11-20T10:54:16;9.10;99.90
2565;DHT22;1292;48.020;7.822;2022-11-20T10:56:47;9.20;99.90
2565;DHT22;1292;48.020;7.822;2022-11-20T10:59:42;9.20;99.90
2565;DHT22;1292;48.020;7.822;2022-11-20T11:02:16;9.20;99.90
2565;DHT22;1292;48.020;7.822;2022-11-20T11:04:46;9.20;99.90
2565;DHT22;1292;48.020;7.822;2022-11-20T11:07:17;9.30;99.90
2565;DHT22;1292;48.020;7.822;2022-11-20T11:09:49;9.40;99.90
2565;DHT22;1292;48.020;7.822;2022-11-20T11:12:17;9.40;99.90
2565;DHT22;1292;48.020;7.822;2022-11-20T11:14:46;9.50;99.90
2565;DHT22;1292;48.020;7.822;2022-11-20T11:17:25;9.60;99.90
2565;DHT22;1292;48.020;7.822;2022-11-20T11:20:01;9.50;99.90
2565;DHT22;1292;48.020;7.822;2022-11-20T11:22:29;9.50;99.90
2565;DHT22;1292;48.020;7.822;2022-11-20T11:24:58;9.40;99.90
2565;DHT22;1292;48.020;7.822;2022-11-20T11:27:25;9.50;99.90
2565;DHT22;1292;48.020;7.822;2022-11-20T11:30:11;9.50;99.90
2565;DHT22;1292;48.020;7.822;2022-11-20T11:32:39;9.60;99.90
2565;DHT22;1292;48.020;7.822;2022-11-20T11:35:19;9.60;99.90
2565;DHT22;1292;48.020;7.822;2022-11-20T11:37:46;9.60;99.90
2565;DHT22;1292;48.020;7.822;2022-11-20T11:40:17;9.60;99.90
2565;DHT22;1292;48.020;7.822;2022-11-20T11:42:51;9.70;99.90
2565;DHT22;1292;48.020;7.822;2022-11-20T11:48:03;9.60;99.90
2565;DHT22;1292;48.020;7.822;2022-11-20T11:50:30;9.60;99.90
2565;DHT22;1292;48.020;7.822;2022-11-20T11:53:07;9.70;99.90
2565;DHT22;1292;48.020;7.822;2022-11-20T11:55:40;9.70;99.90
2565;DHT22;1292;48.020;7.822;2022-11-20T11:58:17;9.60;99.90
2565;DHT22;1292;48.020;7.822;2022-11-20T12:00:52;9.70;99.90
2565;DHT22;1292;48.020;7.822;2022-11-20T12:03:27;9.70;99.90
2565;DHT22;1292;48.020;7.822;2022-11-20T12:05:57;9.70;99.90
2565;DHT22;1292;48.020;7.822;2022-11-20T12:08:31;9.70;99.90
2565;DHT22;1292;48.020;7.822;2022-11-20T12:11:04;9.70;99.90
2565;DHT22;1292;48.020;7.822;2022-11-20T12:13:42;9.70;99.90
2565;DHT22;1292;48.020;7.822;2022-11-20T12:16:12;9.60;99.90
2565;DHT22;1292;48.020;7.822;2022-11-20T12:18:40;9.60;99.90
2565;DHT22;1292;48.020;7.822;2022-11-20T12:21:18;9.70;99.90
2565;DHT22;1292;48.020;7.822;2022-11-20T12:24:05;9.80;99.90
2565;DHT22;1292;48.020;7.822;2022-11-20T12:26:52;9.90;99.90
2565;DHT22;1292;48.020;7.822;2022-11-20T12:29:30;9.90;99.90
2565;DHT22;1292;48.020;7.822;2022-11-20T12:32:32;9.80;99.90
2565;DHT22;1292;48.020;7.822;2022-11-20T12:35:04;9.80;99.90
2565;DHT22;1292;48.020;7.822;2022-11-20T12:37:45;9.80;99.90
2565;DHT22;1292;48.020;7.822;2022-11-20T12:40:27;9.90;99.90
2565;DHT22;1292;48.020;7.822;2022-11-20T12:43:02;9.90;99.90
2565;DHT22;1292;48.020;7.822;2022-11-20T12:46:05;10.10;99.90
2565;DHT22;1292;48.020;7.822;2022-11-20T12:49:03;10.10;99.90
2565;DHT22;1292;48.020;7.822;2022-11-20T12:51:51;10.20;99.90
2565;DHT22;1292;48.020;7.822;2022-11-20T12:57:34;10.30;99.90
2565;DHT22;1292;48.020;7.822;2022-11-20T13:00:12;10.30;99.90
2565;DHT22;1292;48.020;7.822;2022-11-20T13:03:06;10.20;99.90
2565;DHT22;1292;48.020;7.822;2022-11-20T13:05:40;10.10;99.90
2565;DHT22;1292;48.020;7.822;2022-11-20T13:08:24;10.00;99.90
2565;DHT22;1292;48.020;7.822;2022-11-20T13:10:57;10.00;99.90
2565;DHT22;1292;48.020;7.822;2022-11-20T13:13:32;9.90;99.90
2565;DHT22;1292;48.020;7.822;2022-11-20T13:16:06;9.90;99.90
2565;DHT22;1292;48.020;7.822;2022-11-20T13:18:38;10.00;99.90
2565;DHT22;1292;48.020;7.822;2022-11-20T13:21:15;10.00;99.90
2565;DHT22;1292;48.020;7.822;2022-11-20T13:23:42;10.00;99.90
2565;DHT22;1292;48.020;7.822;2022-11-20T13:26:16;9.90;99.90
2565;DHT22;1292;48.020;7.822;2022-11-20T13:28:45;9.90;99.90
2565;DHT22;1292;48.020;7.822;2022-11-20T13:31:31;9.80;99.90
2565;DHT22;1292;48.020;7.822;2022-11-20T13:33:59;9.80;99.90
2565;DHT22;1292;48.020;7.822;2022-11-20T13:36:29;9.80;99.90
2565;DHT22;1292;48.020;7.822;2022-11-20T13:38:58;9.70;99.90
2565;DHT22;1292;48.020;7.822;2022-11-20T13:41:26;9.70;99.90
2565;DHT22;1292;48.020;7.822;2022-11-20T13:44:09;9.70;99.90
2565;DHT22;1292;48.020;7.822;2022-11-20T13:46:41;9.80;99.90
2565;DHT22;1292;48.020;7.822;2022-11-20T13:49:14;9.70;99.90
2565;DHT22;1292;48.020;7.822;2022-11-20T13:51:44;9.70;99.90
2565;DHT22;1292;48.020;7.822;2022-11-20T13:57:38;9.80;99.90
2565;DHT22;1292;48.020;7.822;2022-11-20T14:00:11;9.90;99.90
2565;DHT22;1292;48.020;7.822;2022-11-20T14:02:40;9.90;99.90
2565;DHT22;1292;48.020;7.822;2022-11-20T14:05:19;9.90;99.90
2565;DHT22;1292;48.020;7.822;2022-11-20T14:07:47;10.00;99.90
2565;DHT22;1292;48.020;7.822;2022-11-20T14:10:23;10.10;99.90
2565;DHT22;1292;48.020;7.822;2022-11-20T14:12:50;10.10;99.90
2565;DHT22;1292;48.020;7.822;2022-11-20T14:15:28;10.20;99.90
2565;DHT22;1292;48.020;7.822;2022-11-20T14:17:57;10.20;99.90
2565;DHT22;1292;48.020;7.822;2022-11-20T14:20:26;10.10;99.90
2565;DHT22;1292;48.020;7.822;2022-11-20T14:22:54;10.10;99.90
2565;DHT22;1292;48.020;7.822;2022-11-20T14:25:23;9.90;99.90
2565;DHT22;1292;48.020;7.822;2022-11-20T14:30:57;9.80;99.90
2565;DHT22;1292;48.020;7.822;2022-11-20T14:33:45;9.80;99.90
2565;DHT22;1292;48.020;7.822;2022-11-20T14:36:18;9.80;99.90
2565;DHT22;1292;48.020;7.822;2022-11-20T14:39:25;9.70;99.90
2565;DHT22;1292;48.020;7.822;2022-11-20T14:42:15;9.70;99.90
2565;DHT22;1292;48.020;7.822;2022-11-20T14:44:55;9.60;99.90
2565;DHT22;1292;48.020;7.822;2022-11-20T14:47:44;9.60;99.90
2565;DHT22;1292;48.020;7.822;2022-11-20T14:50:17;9.60;99.90
2565;DHT22;1292;48.020;7.822;2022-11-20T14:52:51;9.70;99.90
2565;DHT22;1292;48.020;7.822;2022-11-20T14:55:30;9.60;99.90
2565;DHT22;1292;48.020;7.822;2022-11-20T14:57:58;9.60;99.90
2565;DHT22;1292;48.020;7.822;2022-11-20T15:00:26;9.60;99.90
2565;DHT22;1292;48.020;7.822;2022-11-20T15:02:53;9.60;99.90
2565;DHT22;1292;48.020;7.822;2022-11-20T15:05:23;9.50;99.90
2565;DHT22;1292;48.020;7.822;2022-11-20T15:08:03;9.60;99.90
2565;DHT22;1292;48.020;7.822;2022-11-20T15:10:31;9.50;99.90
2565;DHT22;1292;48.020;7.822;2022-11-20T15:13:01;9.50;99.90
2565;DHT22;1292;48.020;7.822;2022-11-20T15:15:31;9.50;99.90
2565;DHT22;1292;48.020;7.822;2022-11-20T15:17:59;9.50;99.90
2565;DHT22;1292;48.020;7.822;2022-11-20T15:20:30;9.50;99.90
2565;DHT22;1292;48.020;7.822;2022-11-20T15:22:57;9.50;99.90
2565;DHT22;1292;48.020;7.822;2022-11-20T15:25:24;9.40;99.90
2565;DHT22;1292;48.020;7.822;2022-11-20T15:27:54;9.40;99.90
2565;DHT22;1292;48.020;7.822;2022-11-20T15:30:22;9.40;99.90
2565;DHT22;1292;48.020;7.822;2022-11-20T15:32:50;9.50;99.90
2565;DHT22;1292;48.020;7.822;2022-11-20T15:35:17;9.40;99.90
2565;DHT22;1292;48.020;7.822;2022-11-20T15:37:45;9.40;99.90
2565;DHT22;1292;48.020;7.822;2022-11-20T15:40:12;9.50;99.90
2565;DHT22;1292;48.020;7.822;2022-11-20T15:42:39;9.50;99.90
2565;DHT22;1292;48.020;7.822;2022-11-20T15:45:29;9.60;99.90
2565;DHT22;1292;48.020;7.822;2022-11-20T15:47:57;9.60;99.90
2565;DHT22;1292;48.020;7.822;2022-11-20T15:50:37;9.50;99.90
2565;DHT22;1292;48.020;7.822;2022-11-20T15:53:05;9.50;99.90
2565;DHT22;1292;48.020;7.822;2022-11-20T15:55:33;9.50;99.90
2565;DHT22;1292;48.020;7.822;2022-11-20T15:58:00;9.40;99.90
2565;DHT22;1292;48.020;7.822;2022-11-20T16:00:27;9.30;99.90
2565;DHT22;1292;48.020;7.822;2022-11-20T16:02:54;9.30;99.90
2565;DHT22;1292;48.020;7.822;2022-11-20T16:05:20;9.30;99.90
2565;DHT22;1292;48.020;7.822;2022-11-20T16:07:50;9.30;99.90
2565;DHT22;1292;48.020;7.822;2022-11-20T16:10:18;9.30;99.90
2565;DHT22;1292;48.020;7.822;2022-11-20T16:12:45;9.20;99.90
2565;DHT22;1292;48.020;7.822;2022-11-20T16:15:29;9.20;99.90
2565;DHT22;1292;48.020;7.822;2022-11-20T16:18:13;9.20;99.90
2565;DHT22;1292;48.020;7.822;2022-11-20T16:20:40;9.20;99.90
2565;DHT22;1292;48.020;7.822;2022-11-20T16:23:07;9.20;99.90
2565;DHT22;1292;48.020;7.822;2022-11-20T16:25:35;9.20;99.90
2565;DHT22;1292;48.020;7.822;2022-11-20T16:28:02;9.20;99.90
2565;DHT22;1292;48.020;7.822;2022-11-20T16:30:30;9.10;99.90
2565;DHT22;1292;48.020;7.822;2022-11-20T16:32:57;9.10;99.90
2565;DHT22;1292;48.020;7.822;2022-11-20T16:35:26;9.10;99.90
2565;DHT22;1292;48.020;7.822;2022-11-20T16:37:53;9.10;99.90
2565;DHT22;1292;48.020;7.822;2022-11-20T16:40:20;9.10;99.90
2565;DHT22;1292;48.020;7.822;2022-11-20T16:42:48;9.10;99.90
2565;DHT22;1292;48.020;7.822;2022-11-20T16:45:15;9.00;99.90
2565;DHT22;1292;48.020;7.822;2022-11-20T16:47:43;9.00;99.90
2565;DHT22;1292;48.020;7.822;2022-11-20T16:50:10;9.00;99.90
2565;DHT22;1292;48.020;7.822;2022-11-20T16:52:37;9.00;99.90
2565;DHT22;1292;48.020;7.822;2022-11-20T16:55:04;9.00;99.90
2565;DHT22;1292;48.020;7.822;2022-11-20T16:57:31;9.00;99.90
2565;DHT22;1292;48.020;7.822;2022-11-20T17:00:01;9.00;99.90
2565;DHT22;1292;48.020;7.822;2022-11-20T17:02:28;9.00;99.90
2565;DHT22;1292;48.020;7.822;2022-11-20T17:04:54;9.00;99.90
2565;DHT22;1292;48.020;7.822;2022-11-20T17:07:21;9.00;99.90
2565;DHT22;1292;48.020;7.822;2022-11-20T17:09:48;9.00;99.90
2565;DHT22;1292;48.020;7.822;2022-11-20T17:12:15;9.00;99.90
2565;DHT22;1292;48.020;7.822;2022-11-20T17:14:42;9.00;99.90
2565;DHT22;1292;48.020;7.822;2022-11-20T17:17:10;9.10;99.90
2565;DHT22;1292;48.020;7.822;2022-11-20T17:19:37;9.10;99.90
2565;DHT22;1292;48.020;7.822;2022-11-20T17:22:04;9.00;99.90
2565;DHT22;1292;48.020;7.822;2022-11-20T17:24:30;9.00;99.90
2565;DHT22;1292;48.020;7.822;2022-11-20T17:26:57;9.00;99.90
2565;DHT22;1292;48.020;7.822;2022-11-20T17:29:24;9.00;99.90
2565;DHT22;1292;48.020;7.822;2022-11-20T17:31:53;9.00;99.90
2565;DHT22;1292;48.020;7.822;2022-11-20T17:34:21;9.00;99.90
2565;DHT22;1292;48.020;7.822;2022-11-20T17:36:49;9.00;99.90
2565;DHT22;1292;48.020;7.822;2022-11-20T17:39:16;9.00;99.90
2565;DHT22;1292;48.020;7.822;2022-11-20T17:41:44;9.00;99.90
2565;DHT22;1292;48.020;7.822;2022-11-20T17:44:31;9.00;99.90
2565;DHT22;1292;48.020;7.822;2022-11-20T17:46:57;8.90;99.90
2565;DHT22;1292;48.020;7.822;2022-11-20T17:49:26;8.90;99.90
2565;DHT22;1292;48.020;7.822;2022-11-20T17:51:52;8.80;99.90
2565;DHT22;1292;48.020;7.822;2022-11-20T17:54:19;8.70;99.90
2565;DHT22;1292;48.020;7.822;2022-11-20T17:56:46;8.60;99.90
2565;DHT22;1292;48.020;7.822;2022-11-20T17:59:31;8.50;99.90
2565;DHT22;1292;48.020;7.822;2022-11-20T18:01:57;8.40;99.90
2565;DHT22;1292;48.020;7.822;2022-11-20T18:04:26;8.40;99.90
2565;DHT22;1292;48.020;7.822;2022-11-20T18:06:52;8.30;99.90
2565;DHT22;1292;48.020;7.822;2022-11-20T18:09:19;8.10;99.90
2565;DHT22;1292;48.020;7.822;2022-11-20T18:11:46;7.90;99.90
2565;DHT22;1292;48.020;7.822;2022-11-20T18:14:15;7.80;99.90
2565;DHT22;1292;48.020;7.822;2022-11-20T18:17:04;7.70;99.90
2565;DHT22;1292;48.020;7.822;2022-11-20T18:19:33;7.50;99.90
2565;DHT22;1292;48.020;7.822;2022-11-20T18:22:01;7.40;99.90
2565;DHT22;1292;48.020;7.822;2022-11-20T18:24:29;7.30;99.90
2565;DHT22;1292;48.020;7.822;2022-11-20T18:26:57;7.40;99.90
2565;DHT22;1292;48.020;7.822;2022-11-20T18:29:24;7.30;99.90
2565;DHT22;1292;48.020;7.822;2022-11-20T18:31:51;7.20;99.90
2565;DHT22;1292;48.020;7.822;2022-11-20T18:34:18;7.20;99.90
2565;DHT22;1292;48.020;7.822;2022-11-20T18:36:46;7.20;99.90
2565;DHT22;1292;48.020;7.822;2022-11-20T18:39:13;7.10;99.90
2565;DHT22;1292;48.020;7.822;2022-11-20T18:41:41;7.20;99.90
2565;DHT22;1292;48.020;7.822;2022-11-20T18:44:27;7.20;99.90
2565;DHT22;1292;48.020;7.822;2022-11-20T18:47:15;7.20;99.90
2565;DHT22;1292;48.020;7.822;2022-11-20T18:49:42;7.20;99.90
2565;DHT22;1292;48.020;7.822;2022-11-20T18:52:12;7.30;99.90
2565;DHT22;1292;48.020;7.822;2022-11-20T18:54:38;7.30;99.90
2565;DHT22;1292;48.020;7.822;2022-11-20T18:57:05;7.30;99.90
2565;DHT22;1292;48.020;7.822;2022-11-20T18:59:35;7.30;99.90
2565;DHT22;1292;48.020;7.822;2022-11-20T19:02:01;7.30;99.90
2565;DHT22;1292;48.020;7.822;2022-11-20T19:04:28;7.30;99.90
2565;DHT22;1292;48.020;7.822;2022-11-20T19:06:57;7.40;99.90
2565;DHT22;1292;48.020;7.822;2022-11-20T19:09:25;7.40;99.90
2565;DHT22;1292;48.020;7.822;2022-11-20T19:11:52;7.40;99.90
2565;DHT22;1292;48.020;7.822;2022-11-20T19:14:19;7.30;99.90
2565;DHT22;1292;48.020;7.822;2022-11-20T19:16:46;7.30;99.90
2565;DHT22;1292;48.020;7.822;2022-11-20T19:19:14;7.30;99.90
2565;DHT22;1292;48.020;7.822;2022-11-20T19:21:41;7.30;99.90
2565;DHT22;1292;48.020;7.822;2022-11-20T19:24:08;7.30;99.90
2565;DHT22;1292;48.020;7.822;2022-11-20T19:26:37;7.30;99.90
2565;DHT22;1292;48.020;7.822;2022-11-20T19:29:05;7.20;99.90
2565;DHT22;1292;48.020;7.822;2022-11-20T19:31:32;7.20;99.90
2565;DHT22;1292;48.020;7.822;2022-11-20T19:34:00;7.10;99.90
2565;DHT22;1292;48.020;7.822;2022-11-20T19:36:29;7.00;99.90
2565;DHT22;1292;48.020;7.822;2022-11-20T19:38:56;7.00;99.90
2565;DHT22;1292;48.020;7.822;2022-11-20T19:41:25;7.00;99.90
2565;DHT22;1292;48.020;7.822;2022-11-20T19:43:55;7.00;99.90
2565;DHT22;1292;48.020;7.822;2022-11-20T19:46:24;6.90;99.90
2565;DHT22;1292;48.020;7.822;2022-11-20T19:48:51;6.90;99.90
2565;DHT22;1292;48.020;7.822;2022-11-20T19:51:20;6.80;99.90
2565;DHT22;1292;48.020;7.822;2022-11-20T19:53:47;6.90;99.90
2565;DHT22;1292;48.020;7.822;2022-11-20T19:56:14;6.90;99.90
2565;DHT22;1292;48.020;7.822;2022-11-20T19:58:41;6.90;99.90
2565;DHT22;1292;48.020;7.822;2022-11-20T20:01:11;6.90;99.90
2565;DHT22;1292;48.020;7.822;2022-11-20T20:03:39;6.90;99.90
2565;DHT22;1292;48.020;7.822;2022-11-20T20:06:08;6.90;99.90
2565;DHT22;1292;48.020;7.822;2022-11-20T20:08:36;6.90;99.90
2565;DHT22;1292;48.020;7.822;2022-11-20T20:11:09;6.90;99.90
2565;DHT22;1292;48.020;7.822;2022-11-20T20:13:37;6.90;99.90
2565;DHT22;1292;48.020;7.822;2022-11-20T20:16:06;6.90;99.90
2565;DHT22;1292;48.020;7.822;2022-11-20T20:18:37;6.90;99.90
2565;DHT22;1292;48.020;7.822;2022-11-20T20:21:04;7.00;99.90
2565;DHT22;1292;48.020;7.822;2022-11-20T20:23:31;7.00;99.90
2565;DHT22;1292;48.020;7.822;2022-11-20T20:26:00;7.00;99.90
2565;DHT22;1292;48.020;7.822;2022-11-20T20:28:27;6.90;99.90
2565;DHT22;1292;48.020;7.822;2022-11-20T20:30:55;6.90;99.90
2565;DHT22;1292;48.020;7.822;2022-11-20T20:33:22;6.80;99.90
2565;DHT22;1292;48.020;7.822;2022-11-20T20:35:51;6.80;99.90
2565;DHT22;1292;48.020;7.822;2022-11-20T20:38:18;6.80;99.90
2565;DHT22;1292;48.020;7.822;2022-11-20T20:40:47;6.80;99.90
2565;DHT22;1292;48.020;7.822;2022-11-20T20:43:15;6.70;99.90
2565;DHT22;1292;48.020;7.822;2022-11-20T20:45:46;6.70;99.90
2565;DHT22;1292;48.020;7.822;2022-11-20T20:48:14;6.70;99.90
2565;DHT22;1292;48.020;7.822;2022-11-20T20:50:42;6.70;99.90
2565;DHT22;1292;48.020;7.822;2022-11-20T20:53:19;6.70;99.90
2565;DHT22;1292;48.020;7.822;2022-11-20T20:55:53;6.70;99.90
2565;DHT22;1292;48.020;7.822;2022-11-20T20:58:21;6.70;99.90
2565;DHT22;1292;48.020;7.822;2022-11-20T21:00:48;6.70;99.90
2565;DHT22;1292;48.020;7.822;2022-11-20T21:03:15;6.70;99.90
2565;DHT22;1292;48.020;7.822;2022-11-20T21:05:42;6.60;99.90
2565;DHT22;1292;48.020;7.822;2022-11-20T21:08:09;6.50;99.90
2565;DHT22;1292;48.020;7.822;2022-11-20T21:10:51;6.60;99.90
2565;DHT22;1292;48.020;7.822;2022-11-20T21:13:19;6.50;99.90
2565;DHT22;1292;48.020;7.822;2022-11-20T21:15:48;6.60;99.90
2565;DHT22;1292;48.020;7.822;2022-11-20T21:18:18;6.60;99.90
2565;DHT22;1292;48.020;7.822;2022-11-20T21:20:47;6.60;99.90
2565;DHT22;1292;48.020;7.822;2022-11-20T21:23:33;6.70;99.90
2565;DHT22;1292;48.020;7.822;2022-11-20T21:26:03;6.70;99.90
2565;DHT22;1292;48.020;7.822;2022-11-20T21:28:32;6.70;99.90
2565;DHT22;1292;48.020;7.822;2022-11-20T21:31:04;6.70;99.90
2565;DHT22;1292;48.020;7.822;2022-11-20T21:33:35;6.70;99.90
2565;DHT22;1292;48.020;7.822;2022-11-20T21:36:04;6.70;99.90
2565;DHT22;1292;48.020;7.822;2022-11-20T21:38:31;6.70;99.90
2565;DHT22;1292;48.020;7.822;2022-11-20T21:40:58;6.70;99.90
2565;DHT22;1292;48.020;7.822;2022-11-20T21:43:27;6.70;99.90
2565;DHT22;1292;48.020;7.822;2022-11-20T21:45:59;6.70;99.90
2565;DHT22;1292;48.020;7.822;2022-11-20T21:48:28;6.80;99.90
2565;DHT22;1292;48.020;7.822;2022-11-20T21:50:55;6.70;99.90
2565;DHT22;1292;48.020;7.822;2022-11-20T21:53:22;6.80;99.90
2565;DHT22;1292;48.020;7.822;2022-11-20T21:55:52;6.80;99.90
2565;DHT22;1292;48.020;7.822;2022-11-20T21:58:20;6.80;99.90
